Terminal Aerodrome Forecast
Issued by NWS

Home | Current Version | Previous Version | Text Only | Print | Product List | Glossary On
Versions: 1 2 3 4 5 6 7 8 9 10 11 12 13 14 15 16 17 18 19 20
000
FTUS43 KGRB 292322
TAFAUW
TAF
KAUW 292322Z 3000/3024 09005KT P6SM SCT050
      TEMPO 3000/3004 BKN050
     FM301500 07010G16KT P6SM SCT040 BKN200=

USA.gov is the U.S. government's official web portal to all federal, state and local government web resources and services.